Terminal Aerodrome Forecast
Issued by NWS Jackson, KY

Home | Current Version | Previous Version | Text Only | Print | Product List | Glossary On
Versions: 1 2 3 4 5 6 7 8 9 10 11 12 13 14
000
FTUS43 KJKL 302300
TAFLOZ
TAF
KLOZ 302339Z 3100/3124 24005KT P6SM SCT040 BKN250
     FM310200 VRB03KT P6SM FEW040 SCT250
     FM310900 00000KT 5SM BR SKC
     FM311300 23005KT P6SM SCT040=

USA.gov is the U.S. government's official web portal to all federal, state and local government web resources and services.